createdAt,value
2017-09-27T00:01:01.813Z,14.30
2017-09-27T00:03:29.278Z,15.33
2017-09-27T00:05:56.730Z,14.07
2017-09-27T00:08:24.202Z,15.30
2017-09-27T00:10:52.429Z,13.83
2017-09-27T00:13:19.894Z,15.60
2017-09-27T00:15:47.358Z,16.50
2017-09-27T00:18:14.814Z,15.37
2017-09-27T00:20:42.262Z,13.83
2017-09-27T00:23:09.721Z,14.30
2017-09-27T00:25:37.181Z,13.27
2017-09-27T00:28:04.662Z,15.40
2017-09-27T00:30:32.884Z,13.67
2017-09-27T00:33:00.347Z,14.00
2017-09-27T00:35:27.815Z,13.63
2017-09-27T00:37:55.288Z,13.00
2017-09-27T00:40:22.755Z,14.70
2017-09-27T00:42:50.226Z,14.10
2017-09-27T00:45:19.215Z,13.30
2017-09-27T00:47:46.657Z,13.37
2017-09-27T00:50:14.127Z,14.90
2017-09-27T00:52:41.589Z,17.50
2017-09-27T00:55:09.051Z,15.53
2017-09-27T00:57:36.496Z,15.50
2017-09-27T01:00:03.965Z,15.17
2017-09-27T01:02:31.415Z,13.20
2017-09-27T01:04:59.705Z,16.27
2017-09-27T01:07:27.162Z,12.00
2017-09-27T01:09:54.617Z,16.93
2017-09-27T01:12:22.070Z,14.73
2017-09-27T01:14:49.533Z,13.77
2017-09-27T01:17:16.993Z,14.40
2017-09-27T01:19:44.447Z,13.40
2017-09-27T01:22:12.678Z,15.00
2017-09-27T01:24:40.141Z,14.83
2017-09-27T01:27:07.623Z,14.07
2017-09-27T01:29:35.086Z,14.20
2017-09-27T01:32:02.555Z,15.50
2017-09-27T01:34:30.012Z,12.60
2017-09-27T01:36:57.466Z,13.30
2017-09-27T01:39:24.918Z,14.00
2017-09-27T01:41:52.385Z,13.07
2017-09-27T01:44:19.842Z,13.07
2017-09-27T01:46:47.305Z,16.47
2017-09-27T01:49:15.521Z,14.80
2017-09-27T01:51:43.756Z,14.17
2017-09-27T01:54:11.974Z,12.90
2017-09-27T01:56:39.441Z,14.20
2017-09-27T01:59:06.890Z,12.27
2017-09-27T02:01:35.121Z,14.90
2017-09-27T02:04:03.338Z,14.47
2017-09-27T02:06:31.570Z,12.70
2017-09-27T02:08:59.798Z,12.87
2017-09-27T02:11:28.037Z,13.77
2017-09-27T02:13:56.249Z,14.93
2017-09-27T02:16:23.731Z,14.03
2017-09-27T02:18:51.186Z,15.00
2017-09-27T02:21:18.655Z,11.80
2017-09-27T02:23:46.131Z,13.83
2017-09-27T02:26:14.358Z,14.97
2017-09-27T02:28:42.569Z,13.00
2017-09-27T02:31:10.026Z,15.60
2017-09-27T02:33:37.485Z,12.40
2017-09-27T02:36:05.707Z,13.13
2017-09-27T02:38:33.170Z,16.03
2017-09-27T02:41:00.618Z,12.90
2017-09-27T02:43:28.083Z,14.80
2017-09-27T02:45:55.554Z,14.27
2017-09-27T02:48:23.025Z,14.00
2017-09-27T02:50:51.247Z,13.83
2017-09-27T02:53:18.726Z,12.73
2017-09-27T02:55:46.946Z,16.43
2017-09-27T02:58:15.918Z,12.77
2017-09-27T03:00:43.394Z,15.27
2017-09-27T03:03:12.367Z,13.23
2017-09-27T03:05:39.818Z,14.43
2017-09-27T03:08:07.278Z,13.50
2017-09-27T03:10:34.734Z,15.37
2017-09-27T03:13:02.198Z,13.30
2017-09-27T03:15:29.672Z,14.20
2017-09-27T03:17:58.636Z,13.90
2017-09-27T03:20:26.086Z,14.03
2017-09-27T03:22:53.552Z,14.23
2017-09-27T03:25:21.761Z,14.53
2017-09-27T03:27:49.238Z,13.87
2017-09-27T03:30:17.453Z,15.77
2017-09-27T03:32:45.680Z,14.87
2017-09-27T03:35:13.146Z,14.30
2017-09-27T03:37:41.357Z,14.27
2017-09-27T03:40:09.594Z,12.30
2017-09-27T03:42:37.809Z,13.60
2017-09-27T03:45:05.274Z,15.97
2017-09-27T03:47:32.734Z,13.27
2017-09-27T03:50:00.222Z,13.23
2017-09-27T03:52:27.674Z,15.20
2017-09-27T03:54:55.134Z,14.03
2017-09-27T03:57:22.590Z,14.40
2017-09-27T03:59:50.825Z,12.97
2017-09-27T04:02:18.282Z,12.60
2017-09-27T04:04:45.741Z,14.47
2017-09-27T04:07:13.962Z,13.80
2017-09-27T04:09:41.427Z,15.03
2017-09-27T04:12:08.882Z,13.00
2017-09-27T04:14:37.104Z,13.40
2017-09-27T04:17:04.561Z,11.63
2017-09-27T04:19:32.021Z,11.17
2017-09-27T04:21:59.474Z,11.73
2017-09-27T04:24:26.934Z,12.40
2017-09-27T04:26:54.390Z,12.97
2017-09-27T04:29:22.618Z,13.00
2017-09-27T04:31:50.838Z,12.30
2017-09-27T04:34:18.302Z,12.47
2017-09-27T04:36:45.756Z,12.87
2017-09-27T04:39:13.218Z,12.37
2017-09-27T04:41:40.669Z,11.33
2017-09-27T04:44:08.155Z,12.97
2017-09-27T04:46:35.601Z,13.93
2017-09-27T04:49:03.062Z,13.80
2017-09-27T04:51:30.517Z,13.07
2017-09-27T04:53:57.972Z,13.77
2017-09-27T04:56:26.198Z,12.30
2017-09-27T04:58:54.422Z,18.30
2017-09-27T05:01:21.889Z,13.00
2017-09-27T05:03:50.103Z,12.43
2017-09-27T05:06:17.575Z,14.60
2017-09-27T05:08:45.022Z,14.30
2017-09-27T05:11:12.497Z,15.30
2017-09-27T05:13:39.956Z,14.13
2017-09-27T05:16:07.427Z,13.00
2017-09-27T05:18:34.882Z,14.37
2017-09-27T05:21:02.351Z,14.73
2017-09-27T05:23:29.814Z,14.13
2017-09-27T05:25:57.281Z,13.73
2017-09-27T05:28:24.738Z,14.57
2017-09-27T05:30:52.962Z,13.73
2017-09-27T05:33:20.418Z,12.53
2017-09-27T05:35:48.637Z,13.60
2017-09-27T05:38:16.107Z,14.20
2017-09-27T05:40:43.565Z,12.17
2017-09-27T05:43:11.799Z,13.70
2017-09-27T05:45:39.270Z,13.00
2017-09-27T05:48:07.495Z,15.47
2017-09-27T05:50:35.722Z,14.00
2017-09-27T05:53:03.183Z,13.80
2017-09-27T05:55:30.638Z,14.40
2017-09-27T05:57:58.874Z,15.97
2017-09-27T06:00:27.092Z,16.80
2017-09-27T06:02:54.565Z,12.83
2017-09-27T06:05:22.027Z,12.40
2017-09-27T06:07:49.482Z,13.27
2017-09-27T06:10:16.968Z,13.90
2017-09-27T06:12:44.444Z,13.03
2017-09-27T06:15:12.665Z,14.67
2017-09-27T06:17:40.134Z,12.67
2017-09-27T06:20:07.588Z,13.83
2017-09-27T06:22:35.062Z,13.77
2017-09-27T06:25:02.535Z,15.30
2017-09-27T06:27:30.780Z,16.17
2017-09-27T06:29:58.231Z,14.57
2017-09-27T06:32:25.686Z,15.90
2017-09-27T06:34:53.149Z,15.50
2017-09-27T06:37:20.606Z,15.27
2017-09-27T06:39:48.077Z,17.77
2017-09-27T06:42:15.529Z,14.93
2017-09-27T06:44:43.010Z,13.40
2017-09-27T06:47:11.245Z,16.60
2017-09-27T06:49:38.727Z,16.87
2017-09-27T06:52:06.202Z,15.53
2017-09-27T06:54:33.667Z,14.80
2017-09-27T06:57:01.889Z,16.00
2017-09-27T06:59:29.350Z,14.73
2017-09-27T07:01:57.570Z,20.43
2017-09-27T07:04:25.831Z,16.50
2017-09-27T07:06:53.304Z,15.47
2017-09-27T07:09:20.784Z,17.00
2017-09-27T07:11:48.233Z,14.83
2017-09-27T07:14:16.466Z,15.77
2017-09-27T07:16:43.928Z,14.30
2017-09-27T07:19:11.393Z,14.13
2017-09-27T07:21:38.849Z,15.97
2017-09-27T07:24:06.395Z,15.90
2017-09-27T07:26:33.856Z,14.80
2017-09-27T07:29:01.333Z,15.70
2017-09-27T07:31:28.789Z,14.47
2017-09-27T07:33:56.251Z,14.80
2017-09-27T07:36:24.472Z,17.30
2017-09-27T07:38:51.934Z,15.30
2017-09-27T07:41:19.396Z,16.80
2017-09-27T07:43:46.850Z,16.00
2017-09-27T07:46:14.308Z,15.50
2017-09-27T07:48:41.777Z,18.10
2017-09-27T07:51:09.235Z,16.10
2017-09-27T07:53:36.711Z,15.97
2017-09-27T07:56:04.157Z,17.70
2017-09-27T07:58:31.617Z,18.30
2017-09-27T08:00:59.070Z,18.30
2017-09-27T08:03:26.561Z,16.20
2017-09-27T08:05:54.782Z,18.07
2017-09-27T08:08:22.254Z,17.80
2017-09-27T08:10:49.718Z,18.70
2017-09-27T08:13:17.175Z,17.20
2017-09-27T08:15:44.635Z,19.20
2017-09-27T08:18:12.850Z,18.03
2017-09-27T08:20:40.323Z,22.00
2017-09-27T08:23:08.538Z,17.30
2017-09-27T08:25:36.778Z,17.50
2017-09-27T08:28:04.247Z,17.30
2017-09-27T08:30:32.469Z,17.50
2017-09-27T08:32:59.932Z,17.20
2017-09-27T08:35:27.421Z,17.27
2017-09-27T08:37:55.645Z,18.20
2017-09-27T08:40:23.098Z,17.67
2017-09-27T08:42:50.555Z,17.67
2017-09-27T08:45:18.002Z,16.93
2017-09-27T08:47:45.466Z,17.83
2017-09-27T08:50:12.920Z,18.33
2017-09-27T08:52:40.369Z,17.87
2017-09-27T08:55:07.826Z,17.23
2017-09-27T08:57:35.282Z,20.00
2017-09-27T09:00:02.746Z,17.70
2017-09-27T09:02:30.211Z,17.97
2017-09-27T09:04:57.671Z,17.23
2017-09-27T09:07:25.122Z,20.80
2017-09-27T09:09:52.566Z,17.47
2017-09-27T09:12:20.052Z,21.50
2017-09-27T09:14:47.494Z,19.37
2017-09-27T09:17:14.954Z,18.50
2017-09-27T09:19:42.426Z,20.33
2017-09-27T09:24:43.811Z,19.50
2017-09-27T09:27:12.029Z,19.37
2017-09-27T09:29:39.518Z,17.07
2017-09-27T09:32:07.000Z,17.50
2017-09-27T09:34:34.435Z,17.67
2017-09-27T09:37:01.881Z,17.70
2017-09-27T09:39:29.352Z,20.10
2017-09-27T09:41:56.800Z,17.63
2017-09-27T09:44:24.254Z,19.40
2017-09-27T09:46:51.709Z,19.47
2017-09-27T09:49:19.165Z,18.60
2017-09-27T09:51:47.382Z,19.07
2017-09-27T09:54:15.622Z,18.57
2017-09-27T09:56:43.852Z,19.80
2017-09-27T09:59:12.066Z,17.87
2017-09-27T10:01:39.535Z,20.20
2017-09-27T10:04:06.993Z,19.03
2017-09-27T10:06:34.461Z,21.00
2017-09-27T10:09:01.931Z,17.73
2017-09-27T10:11:30.162Z,18.60
2017-09-27T10:13:58.382Z,17.93
2017-09-27T10:16:25.833Z,19.63
2017-09-27T10:18:53.290Z,20.63
2017-09-27T10:21:20.743Z,19.33
2017-09-27T10:23:48.197Z,18.20
2017-09-27T10:26:15.664Z,19.00
2017-09-27T10:28:43.113Z,19.50
2017-09-27T10:31:10.574Z,21.30
2017-09-27T10:33:38.806Z,20.40
2017-09-27T10:36:06.270Z,17.17
2017-09-27T10:38:33.717Z,16.53
2017-09-27T10:41:01.178Z,19.00
2017-09-27T10:43:29.402Z,21.73
2017-09-27T10:45:57.618Z,20.07
2017-09-27T10:48:25.807Z,18.47
2017-09-27T10:50:53.262Z,18.27
2017-09-27T10:53:20.736Z,21.60
2017-09-27T10:55:48.190Z,20.30
2017-09-27T10:58:16.419Z,19.10
2017-09-27T11:00:43.876Z,20.50
2017-09-27T11:03:11.346Z,18.50
2017-09-27T11:05:38.798Z,19.37
2017-09-27T11:08:07.026Z,22.57
2017-09-27T11:10:35.242Z,18.10
2017-09-27T11:13:02.700Z,20.50
2017-09-27T11:15:30.154Z,20.10
2017-09-27T11:17:57.634Z,19.13
2017-09-27T11:20:25.080Z,20.57
2017-09-27T11:22:52.544Z,18.47
2017-09-27T11:25:19.998Z,21.50
2017-09-27T11:27:47.447Z,19.87
2017-09-27T11:30:14.916Z,21.93
2017-09-27T11:32:42.366Z,18.93
2017-09-27T11:35:09.828Z,21.00
2017-09-27T11:37:37.274Z,19.17
2017-09-27T11:40:04.742Z,20.87
2017-09-27T11:42:32.954Z,20.67
2017-09-27T11:45:00.423Z,19.10
2017-09-27T11:47:27.884Z,20.30
2017-09-27T11:49:56.860Z,21.37
2017-09-27T11:52:24.321Z,21.13
2017-09-27T11:54:51.775Z,20.77
2017-09-27T11:57:19.234Z,20.03
2017-09-27T11:59:46.685Z,17.90
2017-09-27T12:02:14.151Z,22.40
2017-09-27T12:04:41.599Z,21.10
2017-09-27T12:07:09.067Z,20.80
2017-09-27T12:09:38.025Z,20.57
2017-09-27T12:12:05.486Z,21.47
2017-09-27T12:14:32.938Z,18.67
2017-09-27T12:17:00.402Z,20.70
2017-09-27T12:19:27.854Z,20.03
2017-09-27T12:21:56.094Z,22.00
2017-09-27T12:24:24.319Z,20.30
2017-09-27T12:26:51.834Z,20.80
2017-09-27T12:29:20.053Z,19.90
2017-09-27T12:31:47.511Z,22.70
2017-09-27T12:34:14.966Z,22.07
2017-09-27T12:36:42.427Z,20.50
2017-09-27T12:39:09.913Z,20.80
2017-09-27T12:41:37.383Z,20.67
2017-09-27T12:44:04.841Z,21.07
2017-09-27T12:46:33.074Z,21.40
2017-09-27T12:49:00.539Z,21.03
2017-09-27T12:51:27.998Z,19.43
2017-09-27T12:53:55.469Z,21.90
2017-09-27T12:56:22.934Z,21.10
2017-09-27T12:58:50.410Z,20.93
2017-09-27T13:01:18.634Z,20.30
2017-09-27T13:03:46.093Z,19.77
2017-09-27T13:06:13.549Z,19.00
2017-09-27T13:08:41.762Z,19.50
2017-09-27T13:11:09.218Z,20.43
2017-09-27T13:13:38.202Z,19.97
2017-09-27T13:16:06.436Z,21.67
2017-09-27T13:18:33.897Z,23.23
2017-09-27T13:21:01.366Z,21.93
2017-09-27T13:23:28.830Z,20.10
2017-09-27T13:25:56.572Z,20.93
2017-09-27T13:28:24.030Z,20.93
2017-09-27T13:30:51.490Z,22.23
2017-09-27T13:33:18.959Z,22.50
2017-09-27T13:35:47.188Z,20.97
2017-09-27T13:38:15.410Z,21.20
2017-09-27T13:40:42.875Z,21.10
2017-09-27T13:43:11.102Z,19.67
2017-09-27T13:45:38.615Z,21.60
2017-09-27T13:48:06.085Z,19.97
2017-09-27T13:50:34.316Z,23.00
2017-09-27T13:53:01.776Z,21.37
2017-09-27T13:55:29.233Z,20.57
2017-09-27T13:57:56.724Z,21.70
2017-09-27T14:00:24.185Z,22.90
2017-09-27T14:02:52.421Z,19.50
2017-09-27T14:05:19.886Z,23.20
2017-09-27T14:07:47.378Z,24.17
2017-09-27T14:10:14.837Z,19.47
2017-09-27T14:12:42.301Z,22.20
2017-09-27T14:15:09.761Z,22.10
2017-09-27T14:17:37.990Z,23.13
2017-09-27T14:20:05.452Z,24.27
2017-09-27T14:22:32.907Z,19.27
2017-09-27T14:25:00.366Z,23.60
2017-09-27T14:27:27.819Z,22.30
2017-09-27T14:29:55.285Z,23.67
2017-09-27T14:32:22.735Z,21.23
2017-09-27T14:34:50.962Z,22.37
2017-09-27T14:39:59.051Z,23.47
2017-09-27T14:42:26.518Z,23.37
2017-09-27T14:44:53.994Z,22.03
2017-09-27T14:47:21.451Z,22.60
2017-09-27T14:49:48.934Z,21.07
2017-09-27T14:52:17.165Z,26.33
2017-09-27T14:54:44.618Z,22.70
2017-09-27T14:57:12.843Z,20.43
2017-09-27T14:59:41.071Z,21.87
2017-09-27T15:02:08.547Z,22.20
2017-09-27T15:04:36.003Z,23.20
2017-09-27T15:07:03.476Z,24.07
2017-09-27T15:09:31.699Z,24.27
2017-09-27T15:11:59.156Z,26.97
2017-09-27T15:14:26.617Z,24.27
2017-09-27T15:16:54.847Z,23.47
2017-09-27T15:19:23.066Z,25.10
2017-09-27T15:21:51.310Z,26.47
2017-09-27T15:24:18.801Z,24.33
2017-09-27T15:26:46.267Z,22.70
2017-09-27T15:29:13.731Z,24.20
2017-09-27T15:31:41.194Z,25.33
2017-09-27T15:34:08.657Z,24.70
2017-09-27T15:36:36.125Z,25.03
2017-09-27T15:39:03.583Z,22.93
2017-09-27T15:41:31.041Z,23.47
2017-09-27T15:43:58.506Z,22.83
2017-09-27T15:46:26.730Z,64.20
2017-09-27T15:48:54.207Z,56.47
2017-09-27T15:51:21.662Z,57.27
2017-09-27T15:53:49.118Z,55.13
2017-09-27T15:56:16.652Z,61.13
2017-09-27T15:58:44.125Z,69.60
2017-09-27T16:01:11.588Z,66.30
2017-09-27T16:03:39.030Z,63.57
2017-09-27T16:06:06.631Z,62.63
2017-09-27T16:08:34.077Z,67.90
2017-09-27T16:11:01.722Z,56.90
2017-09-27T16:13:29.177Z,63.13
2017-09-27T16:15:56.660Z,56.37
2017-09-27T16:18:24.126Z,62.87
2017-09-27T16:20:51.585Z,59.63
2017-09-27T16:23:19.075Z,55.20
2017-09-27T16:25:46.543Z,50.43
2017-09-27T16:28:13.989Z,52.63
2017-09-27T16:30:41.479Z,53.73
2017-09-27T16:33:08.967Z,47.73
2017-09-27T16:35:36.581Z,49.53
2017-09-27T16:38:04.035Z,48.83
2017-09-27T16:40:31.492Z,45.23
2017-09-27T16:42:58.948Z,45.40
2017-09-27T16:45:26.394Z,46.03
2017-09-27T16:47:53.888Z,43.33
2017-09-27T16:50:21.305Z,49.60
2017-09-27T16:52:48.770Z,44.50
2017-09-27T16:55:16.229Z,43.70
2017-09-27T16:57:43.698Z,48.50
2017-09-27T17:00:11.163Z,42.73
2017-09-27T17:02:38.627Z,41.60
2017-09-27T17:05:06.085Z,43.70
2017-09-27T17:07:33.546Z,40.07
2017-09-27T17:10:00.995Z,40.90
2017-09-27T17:12:28.472Z,43.97
2017-09-27T17:14:55.929Z,38.03
2017-09-27T17:17:23.385Z,48.70
2017-09-27T17:19:50.850Z,41.10
2017-09-27T17:22:18.302Z,54.43
2017-09-27T17:24:45.762Z,40.93
2017-09-27T17:27:13.213Z,39.53
2017-09-27T17:29:40.679Z,38.93
2017-09-27T17:32:08.147Z,42.17
2017-09-27T17:34:35.626Z,38.63
2017-09-27T17:37:03.093Z,39.50
2017-09-27T17:39:30.554Z,45.50
2017-09-27T17:41:58.804Z,35.63
2017-09-27T17:44:26.234Z,40.23
2017-09-27T17:46:53.797Z,40.80
2017-09-27T17:49:21.329Z,36.77
2017-09-27T17:51:48.797Z,37.93
2017-09-27T17:54:16.266Z,44.53
2017-09-27T17:56:43.725Z,39.00
2017-09-27T17:59:11.173Z,38.67
2017-09-27T18:01:38.630Z,41.20
2017-09-27T18:07:35.123Z,37.10
2017-09-27T18:10:08.113Z,39.83
2017-09-27T18:12:41.292Z,35.13
2017-09-27T18:18:13.123Z,37.97
2017-09-27T18:20:40.592Z,38.63
2017-09-27T18:23:08.052Z,37.03
2017-09-27T18:25:35.530Z,39.90
2017-09-27T18:28:03.018Z,37.03
2017-09-27T18:30:30.450Z,34.80
2017-09-27T18:32:57.929Z,32.80
2017-09-27T18:35:25.381Z,37.93
2017-09-27T18:37:52.848Z,39.90
2017-09-27T18:40:20.302Z,36.70
2017-09-27T18:42:47.766Z,35.23
2017-09-27T18:45:15.983Z,39.03
2017-09-27T18:47:43.502Z,38.30
2017-09-27T18:50:11.724Z,34.23
2017-09-27T18:52:39.215Z,37.07
2017-09-27T18:55:06.666Z,36.50
2017-09-27T18:57:34.922Z,34.23
2017-09-27T19:00:02.382Z,33.47
2017-09-27T19:02:29.866Z,32.53
2017-09-27T19:04:57.334Z,35.70
2017-09-27T19:07:24.798Z,34.67
2017-09-27T19:09:52.306Z,34.40
2017-09-27T19:12:19.798Z,36.23
2017-09-27T19:14:47.270Z,36.07
2017-09-27T19:17:15.530Z,34.43
2017-09-27T19:19:42.990Z,32.90
2017-09-27T19:22:10.446Z,35.83
2017-09-27T19:24:37.911Z,40.50
2017-09-27T19:27:05.370Z,41.60
2017-09-27T19:29:32.838Z,34.27
2017-09-27T19:32:01.059Z,35.10
2017-09-27T19:34:28.522Z,34.80
2017-09-27T19:36:55.987Z,33.83
2017-09-27T19:39:23.470Z,41.20
2017-09-27T19:41:50.943Z,35.03
2017-09-27T19:44:18.398Z,33.03
2017-09-27T19:46:46.665Z,39.10
2017-09-27T19:49:14.114Z,35.80
2017-09-27T19:51:41.570Z,32.57
2017-09-27T19:54:09.055Z,32.73
2017-09-27T19:56:36.579Z,37.97
2017-09-27T19:59:04.038Z,36.63
2017-09-27T20:01:31.515Z,36.43
2017-09-27T20:03:58.994Z,37.60
2017-09-27T20:06:27.259Z,36.30
2017-09-27T20:08:55.486Z,38.40
2017-09-27T20:11:23.068Z,42.83
2017-09-27T20:13:50.583Z,36.97
2017-09-27T20:16:18.040Z,36.63
2017-09-27T20:18:45.490Z,38.13
2017-09-27T20:21:12.947Z,40.73
2017-09-27T20:23:40.406Z,36.60
2017-09-27T20:26:07.872Z,33.27
2017-09-27T20:28:35.370Z,39.17
2017-09-27T20:31:02.822Z,33.77
2017-09-27T20:33:30.283Z,37.70
2017-09-27T20:35:57.739Z,33.97
2017-09-27T20:38:25.235Z,37.03
2017-09-27T20:40:53.457Z,37.93
2017-09-27T20:43:20.918Z,33.90
2017-09-27T20:45:48.383Z,35.80
2017-09-27T20:48:15.850Z,35.03
2017-09-27T20:50:43.310Z,33.20
2017-09-27T20:53:10.791Z,40.60
2017-09-27T20:55:38.250Z,32.43
2017-09-27T20:58:06.489Z,43.10
2017-09-27T21:00:33.953Z,35.53
2017-09-27T21:03:01.418Z,34.17
2017-09-27T21:05:28.894Z,38.77
2017-09-27T21:07:57.114Z,37.13
2017-09-27T21:10:24.594Z,33.00
2017-09-27T21:12:52.050Z,34.93
2017-09-27T21:15:19.535Z,33.17
2017-09-27T21:17:46.991Z,37.03
2017-09-27T21:20:14.455Z,34.07
2017-09-27T21:22:42.679Z,34.00
2017-09-27T21:25:10.145Z,35.17
2017-09-27T21:27:38.383Z,35.23
2017-09-27T21:30:05.866Z,34.10
2017-09-27T21:32:33.325Z,34.90
2017-09-27T21:35:00.837Z,34.00
2017-09-27T21:37:29.063Z,38.43
2017-09-27T21:39:56.541Z,35.47
2017-09-27T21:42:24.757Z,36.40
2017-09-27T21:44:52.974Z,39.83
2017-09-27T21:47:20.441Z,34.80
2017-09-27T21:49:47.894Z,37.37
2017-09-27T21:52:15.372Z,33.93
2017-09-27T21:54:42.829Z,32.90
2017-09-27T21:57:10.294Z,36.07
2017-09-27T21:59:38.514Z,33.90
2017-09-27T22:02:06.012Z,38.30
2017-09-27T22:04:33.458Z,37.47
2017-09-27T22:07:00.931Z,38.87
2017-09-27T22:09:28.407Z,34.10
2017-09-27T22:11:55.862Z,34.10
2017-09-27T22:14:23.330Z,37.90
2017-09-27T22:16:50.790Z,32.70
2017-09-27T22:19:18.259Z,36.60
2017-09-27T22:21:46.494Z,36.90
2017-09-27T22:24:13.982Z,35.20
2017-09-27T22:26:42.948Z,33.50
2017-09-27T22:29:10.408Z,40.33
2017-09-27T22:31:37.893Z,34.57
2017-09-27T22:34:05.346Z,28.63
2017-09-27T22:36:32.814Z,36.67
2017-09-27T22:39:01.053Z,30.83
2017-09-27T22:41:28.534Z,35.90
2017-09-27T22:43:55.993Z,40.80
2017-09-27T22:46:23.454Z,35.40
2017-09-27T22:48:51.682Z,34.23
2017-09-27T22:51:19.191Z,32.93
2017-09-27T22:53:47.418Z,29.30
2017-09-27T22:56:14.891Z,32.77
2017-09-27T22:58:42.354Z,36.17
2017-09-27T23:01:09.811Z,28.10
2017-09-27T23:03:37.271Z,35.40
2017-09-27T23:06:04.728Z,28.87
2017-09-27T23:08:32.194Z,35.13
2017-09-27T23:11:00.418Z,38.47
2017-09-27T23:13:27.890Z,36.13
2017-09-27T23:15:55.345Z,36.73
2017-09-27T23:18:22.818Z,32.37
2017-09-27T23:20:50.279Z,31.70
2017-09-27T23:23:17.750Z,35.10
2017-09-27T23:25:48.282Z,32.63
2017-09-27T23:28:15.752Z,30.47
2017-09-27T23:30:43.206Z,36.53
2017-09-27T23:33:12.186Z,32.63
2017-09-27T23:35:39.659Z,36.07
2017-09-27T23:38:07.128Z,30.30
2017-09-27T23:40:35.378Z,29.50
2017-09-27T23:43:02.859Z,30.80
2017-09-27T23:45:30.354Z,29.00
2017-09-27T23:47:57.803Z,29.97
2017-09-27T23:50:26.042Z,26.57
2017-09-27T23:52:54.302Z,28.43
2017-09-27T23:55:21.766Z,29.57
2017-09-27T23:57:49.222Z,30.47
